createdAt,value
2019-03-26T00:00:06.702Z,84.45
2019-03-26T00:03:14.751Z,83.94
2019-03-26T00:06:24.222Z,83.99
2019-03-26T00:09:33.990Z,84.24
2019-03-26T00:12:43.384Z,83.17
2019-03-26T00:15:52.887Z,83.09
2019-03-26T00:19:02.433Z,82.99
2019-03-26T00:22:22.023Z,82.78
2019-03-26T00:25:31.526Z,82.62
2019-03-26T00:28:41.272Z,82.56
2019-03-26T00:31:50.773Z,82.25
2019-03-26T00:35:00.408Z,82.25
2019-03-26T00:38:09.948Z,82.05
2019-03-26T00:41:19.387Z,80.92
2019-03-26T00:44:28.981Z,80.82
2019-03-26T00:47:39.574Z,80.18
2019-03-26T00:50:49.919Z,79.90
2019-03-26T00:53:59.265Z,79.95
2019-03-26T00:57:19.122Z,79.32
2019-03-26T01:00:42.474Z,78.54
2019-03-26T01:03:54.859Z,78.53
2019-03-26T01:07:02.942Z,78.62
2019-03-26T01:10:23.326Z,78.27
2019-03-26T01:13:32.879Z,77.97
2019-03-26T01:16:42.473Z,78.38
2019-03-26T01:19:51.917Z,77.83
2019-03-26T01:23:01.397Z,77.29
2019-03-26T01:26:10.840Z,77.26
2019-03-26T01:29:20.256Z,77.37
2019-03-26T01:32:40.131Z,76.43
2019-03-26T01:35:49.520Z,76.26
2019-03-26T01:38:58.830Z,75.99
2019-03-26T01:42:18.569Z,75.90
2019-03-26T01:45:28.125Z,75.70
2019-03-26T01:48:37.570Z,76.14
2019-03-26T01:51:47.068Z,75.67
2019-03-26T01:54:56.469Z,76.06
2019-03-26T01:58:16.497Z,75.62
2019-03-26T02:01:26.163Z,75.77
2019-03-26T02:04:35.607Z,76.14
2019-03-26T02:07:45.153Z,75.57
2019-03-26T02:10:54.585Z,76.05
2019-03-26T02:14:14.165Z,76.15
2019-03-26T02:17:23.639Z,76.49
2019-03-26T02:20:33.799Z,76.60
2019-03-26T02:23:43.181Z,76.63
2019-03-26T02:27:03.326Z,76.58
2019-03-26T02:30:12.874Z,76.73
2019-03-26T02:33:22.323Z,76.77
2019-03-26T02:36:30.251Z,77.00
2019-03-26T02:39:39.894Z,76.85
2019-03-26T02:42:49.359Z,77.13
2019-03-26T02:45:58.803Z,77.51
2019-03-26T02:49:18.555Z,77.73
2019-03-26T02:52:28.014Z,77.65
2019-03-26T02:55:37.530Z,77.04
2019-03-26T02:58:47.022Z,76.76
2019-03-26T03:01:56.357Z,76.76
2019-03-26T03:05:05.792Z,76.71
2019-03-26T03:08:15.136Z,76.37
2019-03-26T03:11:24.555Z,76.43
2019-03-26T03:14:44.194Z,77.00
2019-03-26T03:17:53.651Z,76.59
2019-03-26T03:21:04.018Z,76.23
2019-03-26T03:24:13.504Z,76.36
2019-03-26T03:27:33.233Z,76.23
2019-03-26T03:30:42.724Z,76.56
2019-03-26T03:33:52.236Z,76.52
2019-03-26T03:37:01.732Z,76.41
2019-03-26T03:40:11.618Z,77.02
2019-03-26T03:43:20.970Z,77.31
2019-03-26T03:46:30.709Z,77.69
2019-03-26T03:49:40.526Z,77.96
2019-03-26T03:52:50.660Z,78.06
2019-03-26T03:56:02.588Z,78.37
2019-03-26T03:59:13.587Z,78.23
2019-03-26T04:02:33.289Z,78.45
2019-03-26T04:05:42.637Z,78.73
2019-03-26T04:08:52.075Z,78.74
2019-03-26T04:12:11.935Z,78.83
2019-03-26T04:15:21.540Z,78.52
2019-03-26T04:18:30.972Z,78.64
2019-03-26T04:21:40.447Z,78.27
2019-03-26T04:24:50.077Z,78.24
2019-03-26T04:28:09.619Z,78.82
2019-03-26T04:31:19.063Z,78.98
2019-03-26T04:34:28.547Z,78.97
2019-03-26T04:37:48.185Z,78.88
2019-03-26T04:40:57.794Z,79.15
2019-03-26T04:44:07.080Z,79.47
2019-03-26T04:47:28.215Z,80.47
2019-03-26T04:50:37.609Z,80.93
2019-03-26T04:53:47.201Z,81.12
2019-03-26T04:57:06.959Z,81.44
2019-03-26T05:00:17.981Z,81.54
2019-03-26T05:03:27.337Z,81.37
2019-03-26T05:06:47.275Z,80.59
2019-03-26T05:09:56.681Z,80.36
2019-03-26T05:13:06.092Z,79.46
2019-03-26T05:16:15.700Z,78.07
2019-03-26T05:19:25.191Z,78.13
2019-03-26T05:22:44.808Z,78.88
2019-03-26T05:25:54.193Z,79.91
2019-03-26T05:29:03.600Z,79.48
2019-03-26T05:32:23.571Z,80.11
2019-03-26T05:35:33.985Z,79.88
2019-03-26T05:38:43.483Z,79.89
2019-03-26T05:41:57.409Z,79.81
2019-03-26T05:45:17.224Z,79.23
2019-03-26T05:48:26.674Z,79.70
2019-03-26T05:51:36.097Z,79.32
2019-03-26T05:54:55.697Z,79.83
2019-03-26T05:58:04.992Z,80.11
2019-03-26T06:01:14.412Z,80.35
2019-03-26T06:04:23.798Z,79.84
2019-03-26T06:07:33.178Z,79.68
2019-03-26T06:10:42.902Z,79.45
2019-03-26T06:13:52.223Z,79.10
2019-03-26T06:17:01.557Z,77.96
2019-03-26T06:20:22.985Z,77.29
2019-03-26T06:23:34.648Z,77.22
2019-03-26T06:26:54.492Z,75.35
2019-03-26T06:30:03.793Z,74.63
2019-03-26T06:33:13.111Z,74.21
2019-03-26T06:36:24.214Z,74.46
2019-03-26T06:39:33.531Z,73.19
2019-03-26T06:42:42.993Z,72.94
2019-03-26T06:46:02.822Z,73.13
2019-03-26T06:49:14.105Z,72.46
2019-03-26T06:52:24.443Z,72.61
2019-03-26T06:55:34.156Z,71.89
2019-03-26T06:58:44.777Z,71.57
2019-03-26T07:01:54.165Z,71.78
2019-03-26T07:05:03.587Z,72.19
2019-03-26T07:08:12.864Z,72.52
2019-03-26T07:11:22.380Z,72.90
2019-03-26T07:14:42.191Z,73.40
2019-03-26T07:17:52.551Z,73.43
2019-03-26T07:21:02.116Z,73.25
2019-03-26T07:24:11.822Z,72.29
2019-03-26T07:27:21.115Z,72.74
2019-03-26T07:30:49.393Z,72.06
2019-03-26T07:33:58.820Z,71.96
2019-03-26T07:37:08.352Z,72.62
2019-03-26T07:40:17.745Z,72.75
2019-03-26T07:43:37.461Z,72.51
2019-03-26T07:46:46.934Z,72.35
2019-03-26T07:49:56.329Z,71.91
2019-03-26T07:53:16.145Z,72.22
2019-03-26T07:56:25.562Z,72.92
2019-03-26T07:59:34.845Z,72.50
2019-03-26T08:02:54.533Z,71.98
2019-03-26T08:06:04.154Z,71.80
2019-03-26T08:09:13.607Z,70.71
2019-03-26T08:12:33.202Z,69.36
2019-03-26T08:15:43.792Z,68.77
2019-03-26T08:18:53.520Z,66.92
2019-03-26T08:22:13.371Z,66.82
2019-03-26T08:25:22.852Z,67.29
2019-03-26T08:28:32.159Z,66.80
2019-03-26T08:31:52.056Z,66.22
2019-03-26T08:35:01.470Z,66.56
2019-03-26T08:38:13.049Z,66.26
2019-03-26T08:41:22.145Z,63.24
2019-03-26T08:44:31.585Z,62.45
2019-03-26T08:47:51.275Z,62.07
2019-03-26T08:51:00.833Z,60.24
2019-03-26T08:54:09.970Z,58.00
2019-03-26T08:57:29.706Z,58.26
2019-03-26T09:00:39.138Z,58.25
2019-03-26T09:03:48.638Z,57.80
2019-03-26T09:07:10.935Z,58.10
2019-03-26T09:10:20.387Z,61.11
2019-03-26T09:13:29.678Z,66.75
2019-03-26T09:16:39.137Z,68.89
2019-03-26T09:19:59.222Z,72.46
2019-03-26T09:23:08.685Z,73.73
2019-03-26T09:26:18.111Z,73.27
2019-03-26T09:29:27.612Z,71.67
2019-03-26T09:32:37.346Z,69.14
2019-03-26T09:35:46.792Z,66.66
2019-03-26T09:38:56.294Z,65.06
2019-03-26T09:42:05.748Z,61.39
2019-03-26T09:45:15.811Z,60.04
2019-03-26T09:48:25.166Z,57.72
2019-03-26T09:51:36.850Z,56.98
2019-03-26T09:54:47.276Z,59.05
2019-03-26T09:57:56.962Z,58.09
2019-03-26T10:01:16.717Z,59.40
2019-03-26T10:04:26.163Z,57.75
2019-03-26T10:07:36.753Z,58.04
2019-03-26T10:10:46.095Z,58.58
2019-03-26T10:13:54.035Z,59.51
2019-03-26T10:17:03.640Z,60.53
2019-03-26T10:20:23.240Z,61.10
2019-03-26T10:23:34.134Z,58.74
2019-03-26T10:26:43.703Z,58.38
2019-03-26T10:30:05.762Z,58.25
2019-03-26T10:33:14.620Z,55.35
2019-03-26T10:36:24.069Z,55.09
2019-03-26T10:39:33.509Z,54.77
2019-03-26T10:42:43.141Z,55.06
2019-03-26T10:46:02.721Z,56.37
2019-03-26T10:49:12.189Z,57.42
2019-03-26T10:52:23.181Z,58.11
2019-03-26T10:55:42.915Z,60.41
2019-03-26T10:58:53.477Z,61.28
2019-03-26T11:02:02.923Z,62.77
2019-03-26T11:05:11.436Z,62.80
2019-03-26T11:08:20.827Z,61.62
2019-03-26T11:11:28.827Z,61.85
2019-03-26T11:14:38.241Z,59.46
2019-03-26T11:17:47.767Z,58.30
2019-03-26T11:21:02.854Z,57.03
2019-03-26T11:24:08.371Z,54.96
2019-03-26T11:27:17.811Z,53.56
2019-03-26T11:30:27.227Z,53.53
2019-03-26T11:33:47.083Z,52.17
2019-03-26T11:36:56.550Z,50.10
2019-03-26T11:40:06.197Z,49.19
2019-03-26T11:43:25.701Z,49.98
2019-03-26T11:46:35.150Z,50.56
2019-03-26T11:49:44.567Z,51.08
2019-03-26T11:53:04.329Z,52.61
2019-03-26T11:56:13.935Z,55.46
2019-03-26T11:59:23.372Z,57.16
2019-03-26T12:02:34.300Z,58.34
2019-03-26T12:05:43.714Z,60.03
2019-03-26T12:08:53.558Z,61.33
2019-03-26T12:12:02.945Z,61.35
2019-03-26T12:15:24.975Z,61.75
2019-03-26T12:18:44.784Z,65.31
2019-03-26T12:21:54.227Z,68.98
2019-03-26T12:25:03.692Z,69.74
2019-03-26T12:28:23.441Z,72.45
2019-03-26T12:31:32.827Z,71.94
2019-03-26T12:34:42.335Z,71.11
2019-03-26T12:38:15.010Z,68.53
2019-03-26T12:41:24.590Z,68.46
2019-03-26T12:44:44.532Z,68.12
2019-03-26T12:47:53.948Z,67.40
2019-03-26T12:51:03.412Z,67.44
2019-03-26T12:54:23.049Z,66.92
2019-03-26T12:57:32.575Z,67.03
2019-03-26T13:00:41.904Z,66.37
2019-03-26T13:04:11.975Z,66.43
2019-03-26T13:07:12.709Z,65.36
2019-03-26T13:10:22.012Z,65.35
2019-03-26T13:13:41.788Z,64.74
2019-03-26T13:16:51.194Z,64.42
2019-03-26T13:20:00.714Z,63.70
2019-03-26T13:23:10.276Z,64.55
2019-03-26T13:26:21.089Z,65.00
2019-03-26T13:29:30.630Z,64.63
2019-03-26T13:32:39.940Z,65.20
2019-03-26T13:35:49.685Z,63.69
2019-03-26T13:39:11.074Z,63.17
2019-03-26T13:42:20.464Z,64.18
2019-03-26T13:45:32.673Z,63.09
2019-03-26T13:48:41.109Z,63.29
2019-03-26T13:51:52.056Z,63.06
2019-03-26T13:55:12.197Z,62.93
2019-03-26T13:58:21.500Z,63.43
2019-03-26T14:01:31.034Z,63.41
2019-03-26T14:04:41.776Z,63.49
2019-03-26T14:07:51.212Z,63.30
2019-03-26T14:11:00.669Z,63.48
2019-03-26T14:14:10.110Z,63.92
2019-03-26T14:17:19.662Z,64.22
2019-03-26T14:20:39.207Z,62.38
2019-03-26T14:23:48.598Z,61.63
2019-03-26T14:26:57.916Z,61.45
2019-03-26T14:30:07.014Z,61.44
2019-03-26T14:33:26.638Z,60.47
2019-03-26T14:36:37.232Z,60.21
2019-03-26T14:39:46.770Z,60.23
2019-03-26T14:42:56.304Z,60.83
2019-03-26T14:46:05.736Z,61.01
2019-03-26T14:49:15.026Z,61.96
2019-03-26T14:52:34.675Z,61.63
2019-03-26T14:55:44.147Z,62.12
2019-03-26T14:58:53.611Z,62.27
2019-03-26T15:02:14.481Z,62.75
2019-03-26T15:05:34.290Z,63.27
2019-03-26T15:08:43.753Z,63.51
2019-03-26T15:11:53.249Z,63.71
2019-03-26T15:15:13.442Z,64.61
2019-03-26T15:18:23.314Z,65.08
2019-03-26T15:21:32.815Z,65.76
2019-03-26T15:24:42.131Z,66.33
2019-03-26T15:28:01.777Z,65.60
2019-03-26T15:31:11.219Z,65.68
2019-03-26T15:34:20.671Z,66.46
2019-03-26T15:37:40.911Z,65.68
2019-03-26T15:40:50.863Z,64.66
2019-03-26T15:44:00.518Z,65.05
2019-03-26T15:47:10.444Z,64.36
2019-03-26T15:50:39.047Z,63.96
2019-03-26T15:53:58.900Z,65.34
2019-03-26T15:57:08.360Z,67.52
2019-03-26T16:00:22.632Z,69.62
2019-03-26T16:03:42.337Z,71.31
2019-03-26T16:06:51.616Z,72.23
2019-03-26T16:10:01.033Z,72.77
2019-03-26T16:13:21.058Z,73.45
2019-03-26T16:16:32.016Z,74.74
2019-03-26T16:19:41.487Z,76.38
2019-03-26T16:23:01.076Z,76.24
2019-03-26T16:26:10.494Z,77.43
2019-03-26T16:29:19.828Z,78.01
2019-03-26T16:32:39.640Z,79.64
2019-03-26T16:35:49.062Z,80.65
2019-03-26T16:38:58.490Z,81.68
2019-03-26T16:42:18.175Z,82.84
2019-03-26T16:45:27.603Z,82.76
2019-03-26T16:48:36.941Z,84.03
2019-03-26T16:51:46.404Z,84.87
2019-03-26T16:54:55.870Z,85.84
2019-03-26T16:58:05.309Z,84.34
2019-03-26T17:01:14.769Z,86.19
2019-03-26T17:04:24.204Z,85.90
2019-03-26T17:07:44.043Z,85.85
2019-03-26T17:10:53.519Z,86.64
2019-03-26T17:14:02.953Z,86.74
2019-03-26T17:17:22.755Z,87.75
2019-03-26T17:20:32.218Z,88.33
2019-03-26T17:23:41.942Z,87.84
2019-03-26T17:26:51.332Z,88.36
2019-03-26T17:30:00.783Z,87.21
2019-03-26T17:33:20.397Z,87.17
2019-03-26T17:36:29.873Z,87.30
2019-03-26T17:39:39.374Z,86.33
2019-03-26T17:42:58.941Z,86.87
2019-03-26T17:46:08.400Z,86.02
2019-03-26T17:49:18.620Z,86.30
2019-03-26T17:52:28.302Z,86.35
2019-03-26T17:55:49.137Z,86.20
2019-03-26T17:58:57.889Z,86.40
2019-03-26T18:02:07.893Z,86.65
2019-03-26T18:05:28.945Z,86.76
2019-03-26T18:08:39.596Z,86.87
2019-03-26T18:11:51.394Z,86.50
2019-03-26T18:15:00.628Z,86.57
2019-03-26T18:18:10.120Z,86.74
2019-03-26T18:21:29.743Z,86.79
2019-03-26T18:24:39.153Z,86.86
2019-03-26T18:27:48.591Z,86.99
2019-03-26T18:31:08.363Z,86.67
2019-03-26T18:34:17.813Z,86.73
2019-03-26T18:37:27.094Z,86.84
2019-03-26T18:40:46.850Z,86.82
2019-03-26T18:43:56.258Z,86.77
2019-03-26T18:47:06.867Z,86.74
2019-03-26T18:50:16.571Z,86.55
2019-03-26T18:53:28.089Z,86.56
2019-03-26T18:56:37.973Z,87.00
2019-03-26T18:59:47.610Z,87.12
2019-03-26T19:02:57.114Z,87.05
2019-03-26T19:06:06.525Z,87.02
2019-03-26T19:09:26.588Z,87.10
2019-03-26T19:12:36.216Z,87.10
2019-03-26T19:15:56.259Z,86.80
2019-03-26T19:19:05.847Z,86.99
2019-03-26T19:22:15.255Z,87.15
2019-03-26T19:25:24.675Z,86.73
2019-03-26T19:28:34.162Z,86.16
2019-03-26T19:31:53.888Z,86.34
2019-03-26T19:35:03.381Z,86.21
2019-03-26T19:38:12.777Z,85.97
2019-03-26T19:41:32.439Z,85.95
2019-03-26T19:44:42.166Z,85.79
2019-03-26T19:47:51.807Z,85.69
2019-03-26T19:51:01.249Z,85.55
2019-03-26T19:54:10.792Z,85.67
2019-03-26T19:57:20.188Z,85.86
2019-03-26T20:00:30.145Z,85.63
2019-03-26T20:03:39.547Z,85.63
2019-03-26T20:06:48.846Z,85.67
2019-03-26T20:10:10.498Z,85.36
2019-03-26T20:13:24.683Z,85.54
2019-03-26T20:16:41.377Z,85.58
2019-03-26T20:19:40.875Z,85.60
2019-03-26T20:22:50.322Z,85.76
2019-03-26T20:25:59.853Z,85.82
2019-03-26T20:29:09.256Z,85.25
2019-03-26T20:32:18.762Z,85.62
2019-03-26T20:35:28.176Z,85.14
2019-03-26T20:38:48.079Z,85.50
2019-03-26T20:41:57.484Z,85.28
2019-03-26T20:45:08.873Z,85.20
2019-03-26T20:48:18.178Z,85.17
2019-03-26T20:51:27.590Z,85.31
2019-03-26T20:54:47.481Z,85.53
2019-03-26T20:57:56.885Z,85.55
2019-03-26T21:01:06.260Z,85.73
2019-03-26T21:04:25.934Z,85.79
2019-03-26T21:07:35.331Z,85.25
2019-03-26T21:10:44.812Z,85.73
2019-03-26T21:14:04.464Z,85.50
2019-03-26T21:17:14.071Z,85.01
2019-03-26T21:20:23.433Z,85.02
2019-03-26T21:23:43.492Z,85.07
2019-03-26T21:26:52.767Z,85.22
2019-03-26T21:30:10.833Z,84.79
2019-03-26T21:33:13.266Z,84.76
2019-03-26T21:36:22.785Z,84.73
2019-03-26T21:39:42.394Z,84.97
2019-03-26T21:42:51.697Z,84.87
2019-03-26T21:46:01.007Z,84.73
2019-03-26T21:49:10.508Z,84.95
2019-03-26T21:52:19.858Z,84.61
2019-03-26T21:55:29.151Z,84.84
2019-03-26T21:58:38.477Z,85.07
2019-03-26T22:01:47.944Z,84.91
2019-03-26T22:04:57.243Z,84.87
2019-03-26T22:08:16.952Z,85.09
2019-03-26T22:11:26.435Z,85.18
2019-03-26T22:14:35.738Z,85.44
2019-03-26T22:17:45.011Z,85.12
2019-03-26T22:20:54.485Z,85.43
2019-03-26T22:24:03.942Z,85.43
2019-03-26T22:27:23.515Z,85.35
2019-03-26T22:30:33.105Z,85.25
2019-03-26T22:33:42.544Z,85.37
2019-03-26T22:37:02.125Z,85.14
2019-03-26T22:40:12.032Z,84.84
2019-03-26T22:43:21.317Z,84.56
2019-03-26T22:46:30.725Z,83.98
2019-03-26T22:49:40.793Z,83.89
2019-03-26T22:52:50.071Z,84.09
2019-03-26T22:55:59.418Z,83.79
2019-03-26T22:59:19.058Z,83.53
2019-03-26T23:02:28.520Z,83.64
2019-03-26T23:05:37.943Z,83.47
2019-03-26T23:08:57.716Z,83.85
2019-03-26T23:12:07.008Z,84.04
2019-03-26T23:15:23.172Z,84.32
2019-03-26T23:18:32.471Z,83.77
2019-03-26T23:21:41.868Z,83.90
2019-03-26T23:24:51.351Z,82.68
2019-03-26T23:28:00.712Z,83.10
2019-03-26T23:31:10.066Z,83.47
2019-03-26T23:34:29.841Z,83.37
2019-03-26T23:37:39.320Z,83.38
2019-03-26T23:40:48.715Z,83.27
2019-03-26T23:44:08.400Z,82.89
2019-03-26T23:47:17.815Z,82.90
2019-03-26T23:50:27.441Z,82.98
2019-03-26T23:53:36.848Z,82.53
2019-03-26T23:56:46.357Z,82.46
2019-03-26T23:59:55.773Z,82.59
